logo
Rechercher aéroport 
image banner adimage banner adimage banner ad
image banner ad

SWIS - Caiapo

Situé à Caseara, Brazil

ICAO - SWIS, IATA -

Données fournies par Airmate  

Information générale

Coordonnées: S9°11'12" W49°46'31"
Élévation : 647 feet MSL.
Variation magnétique : -20.974201945° East
Voir autres Aéroports à Tocatins

Données opérationnelles

Special qualification required
Heure actuelle UTC:
Heure actuelle locale:
Météo à : - ( 0 km )
METAR: UIBB 241904Z 25001MPS 0400 0150W PRFG NSC 10/10 Q1011 R30/CLRD60 NOSIG RMK QFE715/0954
Voir NOTAMs / SUP AIP / TFR affectant cet aéroport [VIEW]
Fréquences de communication: [VIEW]

Pistes:

Identifiant RWYQFULongueur (ft)Largeur (ft)SurfaceLDA (ft)
13459382ASPH
31459382ASPH

Coordonnées de l'aéroport

Adresse: Caseara Brazil

Vue satellite de SWIS